Time;durP1;ratioP1;P1;durP2;ratioP2;P2;SDS_P1;SDS_P2;PMS_P1;PMS_P2;Temp;Humidity;BMP_temperature;BMP_pressure;BME280_temperature;BME280_humidity;BME280_pressure;Samples;Min_cycle;Max_cycle;Signal;HPM_P1;HPM_P2
2021/10/17 00:00:50;;;;;;;13.93;8.45;;;8.80;99.90;;;;;;5052098;28;20033;-68
2021/10/17 00:03:16;;;;;;;15.45;7.80;;;8.60;99.90;;;;;;5070351;28;20489;-68
2021/10/17 00:05:41;;;;;;;12.30;7.63;;;8.60;99.90;;;;;;5070768;28;20041;-69
2021/10/17 00:08:08;;;;;;;13.68;8.05;;;8.60;99.90;;;;;;5071955;28;20033;-68
2021/10/17 00:10:36;;;;;;;13.52;7.25;;;8.70;99.90;;;;;;5072151;28;20039;-69
2021/10/17 00:13:07;;;;;;;14.40;7.40;;;8.90;99.90;;;;;;5071781;28;20128;-69
2021/10/17 00:15:35;;;;;;;13.35;7.28;;;8.80;99.90;;;;;;5072217;28;20089;-69
2021/10/17 00:18:04;;;;;;;14.30;7.15;;;8.80;99.90;;;;;;5031711;28;20128;-68
2021/10/17 00:20:31;;;;;;;15.18;7.72;;;8.90;99.90;;;;;;5047244;28;20029;-68
2021/10/17 00:22:57;;;;;;;15.65;7.85;;;8.80;99.90;;;;;;5030744;28;20117;-69
2021/10/17 00:25:24;;;;;;;14.50;9.05;;;8.70;99.90;;;;;;5047505;28;20044;-69
2021/10/17 00:27:50;;;;;;;15.10;8.00;;;8.60;99.90;;;;;;5031978;28;20034;-69
2021/10/17 00:30:18;;;;;;;14.07;7.95;;;8.50;99.90;;;;;;5047315;28;20514;-69
2021/10/17 00:32:44;;;;;;;13.10;7.85;;;8.40;99.90;;;;;;5047024;28;20041;-69
2021/10/17 00:35:13;;;;;;;15.27;6.88;;;8.20;99.90;;;;;;5031840;28;20022;-69
2021/10/17 00:37:39;;;;;;;11.43;6.50;;;8.00;99.90;;;;;;5030895;28;20288;-69
2021/10/17 00:40:09;;;;;;;10.27;6.47;;;8.00;99.90;;;;;;5031847;28;20490;-69
2021/10/17 00:42:36;;;;;;;9.95;6.55;;;7.80;99.90;;;;;;5046993;28;20075;-69
2021/10/17 00:45:08;;;;;;;12.68;6.93;;;7.60;99.90;;;;;;5033419;28;20030;-69
2021/10/17 00:47:34;;;;;;;11.93;6.90;;;7.70;99.90;;;;;;5067439;28;20056;-69
2021/10/17 00:50:00;;;;;;;11.73;6.95;;;7.90;99.90;;;;;;5075372;28;20024;-69
2021/10/17 00:52:25;;;;;;;11.85;6.88;;;8.00;99.90;;;;;;5091124;28;20039;-69
2021/10/17 00:54:51;;;;;;;12.60;6.57;;;8.10;99.90;;;;;;5074198;28;20543;-69
2021/10/17 00:57:18;;;;;;;10.70;6.78;;;8.20;99.90;;;;;;5075223;28;20042;-69
2021/10/17 00:59:45;;;;;;;15.43;8.18;;;8.20;99.90;;;;;;5074201;28;20035;-69
2021/10/17 01:02:14;;;;;;;12.23;7.25;;;8.30;99.90;;;;;;5090856;28;20044;-69
2021/10/17 01:04:41;;;;;;;13.38;7.65;;;8.20;99.90;;;;;;5073872;28;20477;-69
2021/10/17 01:07:08;;;;;;;11.82;6.65;;;8.10;99.90;;;;;;5057188;28;20041;-69
2021/10/17 01:09:36;;;;;;;11.40;6.22;;;7.90;99.90;;;;;;5075048;28;20029;-69
2021/10/17 01:12:02;;;;;;;15.05;6.82;;;7.70;99.90;;;;;;5074794;28;20447;-69
2021/10/17 01:14:28;;;;;;;14.05;7.97;;;7.40;99.90;;;;;;5075026;28;20362;-69
2021/10/17 01:16:54;;;;;;;13.02;7.43;;;7.40;99.90;;;;;;5064416;28;20090;-69
2021/10/17 01:19:22;;;;;;;14.25;7.35;;;7.50;99.90;;;;;;5070239;28;20060;-69
2021/10/17 01:21:48;;;;;;;11.23;6.60;;;7.50;99.90;;;;;;5070459;28;20426;-69
2021/10/17 01:24:16;;;;;;;12.57;7.35;;;7.60;99.90;;;;;;5055132;28;20025;-69
2021/10/17 01:26:42;;;;;;;11.68;6.70;;;7.50;99.90;;;;;;5070008;28;20100;-69
2021/10/17 01:29:09;;;;;;;11.35;6.90;;;7.50;99.90;;;;;;5070419;28;20543;-69
2021/10/17 01:31:53;;;;;;;13.80;8.18;;;7.40;99.90;;;;;;5054452;28;20478;-69
2021/10/17 01:34:21;;;;;;;12.90;7.25;;;7.30;99.90;;;;;;5054918;28;20032;-69
2021/10/17 01:36:48;;;;;;;9.95;6.85;;;7.40;99.90;;;;;;5070026;28;20071;-69
2021/10/17 01:39:19;;;;;;;11.90;6.85;;;7.40;99.90;;;;;;5053501;28;20108;-69
2021/10/17 01:41:46;;;;;;;9.80;6.53;;;7.40;99.90;;;;;;5069468;28;20041;-69
2021/10/17 01:44:22;;;;;;;11.35;7.00;;;7.40;99.90;;;;;;5054621;28;20032;-69
2021/10/17 01:46:48;;;;;;;9.43;6.43;;;7.20;99.90;;;;;;5063840;28;20036;-69
2021/10/17 01:49:14;;;;;;;11.80;7.00;;;7.20;99.90;;;;;;5056469;28;20401;-69
2021/10/17 01:51:40;;;;;;;11.85;7.15;;;7.20;99.90;;;;;;5074226;28;20427;-69
2021/10/17 01:54:06;;;;;;;11.00;7.60;;;7.30;99.90;;;;;;5074157;28;20429;-69
2021/10/17 01:56:33;;;;;;;12.90;8.10;;;7.30;99.90;;;;;;5054487;28;20117;-69
2021/10/17 01:58:59;;;;;;;14.65;9.13;;;7.30;99.90;;;;;;5054239;28;20029;-69
2021/10/17 02:01:26;;;;;;;15.18;8.40;;;7.40;99.90;;;;;;5053420;28;20052;-68
2021/10/17 02:03:53;;;;;;;18.08;9.13;;;7.40;99.90;;;;;;5069661;28;20080;-68
2021/10/17 02:06:19;;;;;;;17.35;9.10;;;7.40;99.90;;;;;;5054441;28;20489;-69
2021/10/17 02:08:46;;;;;;;18.77;10.02;;;7.30;99.90;;;;;;5053907;28;20119;-69
2021/10/17 02:11:12;;;;;;;22.92;10.00;;;7.30;99.90;;;;;;5054060;28;20080;-68
2021/10/17 02:13:41;;;;;;;20.17;10.43;;;7.10;99.90;;;;;;5069170;28;20041;-69
2021/10/17 02:16:07;;;;;;;20.48;10.98;;;7.00;99.90;;;;;;5053975;28;20029;-68
2021/10/17 02:18:33;;;;;;;17.70;9.70;;;7.10;99.90;;;;;;5053493;28;20053;-68
2021/10/17 02:20:59;;;;;;;16.48;9.60;;;7.30;99.90;;;;;;5053968;28;20033;-68
2021/10/17 02:23:25;;;;;;;13.90;8.50;;;7.40;99.90;;;;;;5053957;28;20036;-68
2021/10/17 02:25:51;;;;;;;23.33;10.63;;;7.30;99.90;;;;;;5053949;28;20079;-69
2021/10/17 02:28:17;;;;;;;17.02;8.90;;;7.50;99.90;;;;;;5053596;28;20047;-68
2021/10/17 02:30:42;;;;;;;13.75;8.82;;;7.40;99.90;;;;;;5053701;28;20116;-68
2021/10/17 02:33:08;;;;;;;18.08;7.82;;;7.30;99.90;;;;;;5069106;28;20037;-68
2021/10/17 02:35:34;;;;;;;14.20;7.85;;;7.10;99.90;;;;;;5053202;28;20385;-69
2021/10/17 02:38:00;;;;;;;15.45;9.00;;;7.00;99.90;;;;;;5053571;28;20035;-69
2021/10/17 02:40:25;;;;;;;14.07;8.43;;;7.10;99.90;;;;;;5053702;28;20056;-69
2021/10/17 02:42:51;;;;;;;15.02;8.50;;;6.90;99.90;;;;;;5051679;28;20390;-69
2021/10/17 02:45:17;;;;;;;15.25;8.48;;;6.60;99.90;;;;;;5053565;28;20033;-68
2021/10/17 02:47:43;;;;;;;20.80;10.07;;;6.70;99.90;;;;;;5068413;28;20048;-68
2021/10/17 02:50:09;;;;;;;16.02;8.60;;;6.90;99.90;;;;;;5053251;28;20033;-68
2021/10/17 02:52:35;;;;;;;15.57;8.75;;;6.90;99.90;;;;;;5052979;28;20418;-68
2021/10/17 02:55:00;;;;;;;13.98;8.85;;;6.80;99.90;;;;;;5053045;28;20025;-68
2021/10/17 02:57:26;;;;;;;22.92;9.80;;;6.80;99.90;;;;;;5053306;28;20424;-68
2021/10/17 02:59:52;;;;;;;17.45;9.82;;;6.90;99.90;;;;;;5068234;28;20029;-68
2021/10/17 03:02:18;;;;;;;12.82;8.02;;;7.00;99.90;;;;;;5053191;28;20037;-68
2021/10/17 03:04:43;;;;;;;12.95;8.13;;;6.80;99.90;;;;;;5052944;28;20028;-68
2021/10/17 03:07:09;;;;;;;16.45;9.45;;;6.80;99.90;;;;;;5052548;28;20036;-70
2021/10/17 03:09:35;;;;;;;18.17;10.30;;;6.80;99.90;;;;;;5052919;28;20029;-69
2021/10/17 03:12:00;;;;;;;14.90;8.70;;;6.90;99.90;;;;;;5052811;28;20032;-69
2021/10/17 03:14:26;;;;;;;17.13;8.52;;;6.80;99.90;;;;;;5052637;28;20025;-69
2021/10/17 03:16:52;;;;;;;14.43;7.57;;;6.80;99.90;;;;;;5052538;28;20086;-69
2021/10/17 03:19:18;;;;;;;12.25;7.60;;;6.90;99.90;;;;;;5052555;28;20041;-68
2021/10/17 03:21:45;;;;;;;18.75;9.48;;;6.90;99.90;;;;;;5052612;28;20037;-68
2021/10/17 03:24:14;;;;;;;14.68;8.82;;;7.00;99.90;;;;;;5052771;28;20519;-68
2021/10/17 03:26:40;;;;;;;15.73;8.68;;;7.20;99.90;;;;;;5052426;28;20478;-68
2021/10/17 03:29:05;;;;;;;17.08;8.23;;;7.10;99.90;;;;;;5052644;28;20029;-69
2021/10/17 03:31:34;;;;;;;16.45;8.55;;;6.90;99.90;;;;;;5052293;28;20234;-69
2021/10/17 03:34:00;;;;;;;13.45;8.02;;;6.90;99.90;;;;;;5067536;28;20033;-69
2021/10/17 03:36:26;;;;;;;13.57;7.47;;;7.00;99.90;;;;;;5052639;28;20120;-69
2021/10/17 03:38:52;;;;;;;10.23;7.15;;;7.00;99.90;;;;;;5052397;28;20448;-69
2021/10/17 03:41:18;;;;;;;11.80;7.22;;;7.00;99.90;;;;;;5052882;28;20053;-69
2021/10/17 03:43:43;;;;;;;10.02;6.82;;;7.00;99.90;;;;;;5052129;28;20074;-69
2021/10/17 03:46:09;;;;;;;17.48;8.23;;;7.00;99.90;;;;;;5052339;28;20439;-69
2021/10/17 03:48:35;;;;;;;24.05;10.77;;;7.00;99.90;;;;;;5052089;28;20029;-69
2021/10/17 03:51:01;;;;;;;18.95;11.15;;;7.00;99.90;;;;;;5052509;28;20029;-69
2021/10/17 03:53:27;;;;;;;18.02;10.90;;;7.00;99.90;;;;;;5052133;28;20497;-69
2021/10/17 03:55:52;;;;;;;21.70;12.07;;;6.90;99.90;;;;;;5052358;28;20056;-69
2021/10/17 03:58:18;;;;;;;25.58;12.68;;;6.90;99.90;;;;;;5052133;28;20028;-69
2021/10/17 04:00:44;;;;;;;25.23;11.98;;;6.80;99.90;;;;;;5052217;28;20032;-69
2021/10/17 04:03:09;;;;;;;18.08;11.05;;;6.80;99.90;;;;;;5052351;28;20519;-69
2021/10/17 04:05:35;;;;;;;53.60;20.52;;;6.70;99.90;;;;;;5051788;28;20128;-69
2021/10/17 04:08:02;;;;;;;22.67;11.05;;;6.60;99.90;;;;;;5052360;28;20382;-69
2021/10/17 04:10:28;;;;;;;28.42;12.88;;;6.60;99.90;;;;;;5051997;28;20091;-69
2021/10/17 04:12:54;;;;;;;25.33;12.75;;;6.50;99.90;;;;;;5052081;28;20045;-69
2021/10/17 04:15:19;;;;;;;23.48;11.82;;;6.50;99.90;;;;;;5050702;28;20060;-69
2021/10/17 04:17:45;;;;;;;21.05;12.48;;;6.50;99.90;;;;;;5051652;28;20060;-69
2021/10/17 04:20:11;;;;;;;26.13;13.70;;;6.40;99.90;;;;;;5054099;28;20039;-69
2021/10/17 04:22:37;;;;;;;22.20;13.93;;;6.30;99.90;;;;;;5056040;28;20103;-69
2021/10/17 04:25:03;;;;;;;27.58;14.68;;;6.40;99.90;;;;;;5055875;28;20478;-69
2021/10/17 04:27:29;;;;;;;23.48;13.30;;;6.30;99.90;;;;;;5055966;28;20032;-69
2021/10/17 04:29:55;;;;;;;24.60;14.15;;;6.30;99.90;;;;;;5055585;28;20726;-69
2021/10/17 04:32:21;;;;;;;28.48;15.07;;;6.20;99.90;;;;;;5056047;28;20043;-69
2021/10/17 04:34:46;;;;;;;29.98;14.75;;;6.30;99.90;;;;;;5055643;28;20029;-69
2021/10/17 04:37:13;;;;;;;27.75;14.88;;;6.30;99.90;;;;;;5056074;28;20082;-69
2021/10/17 04:39:40;;;;;;;28.10;14.88;;;6.30;99.90;;;;;;5070852;28;20500;-69
2021/10/17 04:42:06;;;;;;;29.90;14.05;;;6.30;99.90;;;;;;5055967;28;20167;-69
2021/10/17 04:44:33;;;;;;;26.58;14.20;;;6.40;99.90;;;;;;5055487;28;20107;-69
2021/10/17 04:47:00;;;;;;;29.50;15.68;;;6.30;99.90;;;;;;5070932;28;20037;-68
2021/10/17 04:49:26;;;;;;;28.17;15.77;;;6.30;99.90;;;;;;5055790;28;20106;-68
2021/10/17 04:51:55;;;;;;;29.08;14.63;;;6.20;99.90;;;;;;5055263;28;20036;-68
2021/10/17 04:54:22;;;;;;;29.00;15.35;;;6.10;99.90;;;;;;5055337;28;20029;-69
2021/10/17 04:56:48;;;;;;;29.25;15.52;;;6.00;99.90;;;;;;5055604;28;20070;-69
2021/10/17 04:59:17;;;;;;;28.90;15.80;;;6.00;99.90;;;;;;5055369;28;20086;-69
2021/10/17 05:01:43;;;;;;;29.48;15.55;;;5.90;99.90;;;;;;5070318;28;20032;-69
2021/10/17 05:04:08;;;;;;;29.50;16.20;;;5.90;99.90;;;;;;5055485;28;20371;-69
2021/10/17 05:06:34;;;;;;;32.38;16.98;;;5.90;99.90;;;;;;5055052;28;20044;-69
2021/10/17 05:09:00;;;;;;;32.30;16.50;;;6.00;99.90;;;;;;5055301;28;20033;-69
2021/10/17 05:11:25;;;;;;;37.72;16.75;;;5.90;99.90;;;;;;5055059;28;20401;-69
2021/10/17 05:13:52;;;;;;;28.75;15.65;;;6.00;99.90;;;;;;5055234;28;20466;-69
2021/10/17 05:16:18;;;;;;;31.38;16.17;;;6.00;99.90;;;;;;5070491;28;20033;-69
2021/10/17 05:18:44;;;;;;;30.05;16.17;;;6.10;99.90;;;;;;5054729;28;20047;-69
2021/10/17 05:21:10;;;;;;;26.52;14.93;;;6.30;99.90;;;;;;5055098;28;20363;-69
2021/10/17 05:23:36;;;;;;;25.45;13.10;;;6.30;99.90;;;;;;5055253;28;20033;-69
2021/10/17 05:26:03;;;;;;;23.50;13.60;;;6.40;99.90;;;;;;5070175;28;20025;-70
2021/10/17 05:28:30;;;;;;;29.15;14.55;;;6.40;99.90;;;;;;5054855;28;20033;-69
2021/10/17 05:31:00;;;;;;;28.70;14.48;;;6.30;99.90;;;;;;5054558;28;20029;-69
2021/10/17 05:33:33;;;;;;;29.45;15.52;;;6.40;99.90;;;;;;5053482;28;20048;-70
2021/10/17 05:35:58;;;;;;;27.48;13.68;;;6.50;99.90;;;;;;5054766;28;20032;-70
2021/10/17 05:38:24;;;;;;;27.63;13.48;;;6.70;99.90;;;;;;5054619;28;20045;-69
2021/10/17 05:40:50;;;;;;;22.17;12.82;;;6.80;99.90;;;;;;5054315;28;20068;-70
2021/10/17 05:43:16;;;;;;;23.67;12.35;;;6.80;99.90;;;;;;5054463;28;20033;-70
2021/10/17 05:45:41;;;;;;;21.50;11.95;;;6.60;99.90;;;;;;5054383;28;20065;-70
2021/10/17 05:48:07;;;;;;;23.75;13.60;;;6.40;99.90;;;;;;5054709;28;20108;-70
2021/10/17 05:50:33;;;;;;;32.03;15.23;;;6.30;99.90;;;;;;5054438;28;20059;-70
2021/10/17 05:52:59;;;;;;;30.88;14.43;;;6.30;99.90;;;;;;5054455;28;20037;-69
2021/10/17 05:55:24;;;;;;;26.13;14.45;;;6.30;99.90;;;;;;5054247;28;20155;-69
2021/10/17 05:57:50;;;;;;;50.72;25.70;;;6.30;99.90;;;;;;5054089;28;20037;-70
2021/10/17 06:00:16;;;;;;;40.15;17.52;;;6.50;99.90;;;;;;5054413;28;20040;-70
2021/10/17 06:02:42;;;;;;;31.88;16.52;;;7.40;99.90;;;;;;5054082;28;20033;-70
2021/10/17 06:05:08;;;;;;;34.65;16.08;;;7.60;99.90;;;;;;5054139;28;20024;-69
2021/10/17 06:07:36;;;;;;;30.17;14.30;;;7.50;99.90;;;;;;5069521;28;20033;-70
2021/10/17 06:10:07;;;;;;;30.63;14.48;;;7.90;99.90;;;;;;5052953;28;20116;-70
2021/10/17 06:12:32;;;;;;;;;;;7.00;99.90;;;;;;5054351;28;20055;-70
2021/10/17 06:14:58;;;;;;;23.40;13.13;;;6.90;99.90;;;;;;5053825;28;19983;-69
2021/10/17 06:17:24;;;;;;;22.33;11.82;;;6.80;99.90;;;;;;5053790;28;20036;-70
2021/10/17 06:19:49;;;;;;;28.17;12.02;;;6.80;99.90;;;;;;5053649;28;20436;-70
2021/10/17 06:22:15;;;;;;;27.25;13.23;;;7.00;99.90;;;;;;5053938;28;20067;-69
2021/10/17 06:24:41;;;;;;;23.83;11.77;;;7.00;99.90;;;;;;5069320;28;20052;-69
2021/10/17 06:27:07;;;;;;;31.25;11.45;;;7.00;99.90;;;;;;5053855;28;20091;-70
2021/10/17 06:29:32;;;;;;;24.60;11.05;;;7.10;99.90;;;;;;5053859;28;20029;-69
2021/10/17 06:31:58;;;;;;;26.88;11.77;;;7.10;99.90;;;;;;5053117;28;20047;-71
2021/10/17 06:34:24;;;;;;;23.75;12.07;;;7.10;99.90;;;;;;5059745;28;20033;-71
2021/10/17 06:36:50;;;;;;;23.15;12.48;;;6.80;99.90;;;;;;5034330;28;20068;-70
2021/10/17 06:39:15;;;;;;;33.88;13.35;;;6.70;99.90;;;;;;5039379;28;20070;-73
2021/10/17 06:41:42;;;;;;;27.17;12.43;;;6.80;99.90;;;;;;5053084;28;20074;-73
2021/10/17 06:44:07;;;;;;;32.38;13.63;;;6.70;99.90;;;;;;5052539;28;20063;-76
2021/10/17 06:46:33;;;;;;;28.70;12.20;;;6.80;99.90;;;;;;5068810;28;20029;-72
2021/10/17 06:48:59;;;;;;;24.52;11.40;;;6.80;99.90;;;;;;5052928;28;20612;-71
2021/10/17 06:51:24;;;;;;;23.33;12.20;;;6.80;99.90;;;;;;5051996;28;20167;-73
2021/10/17 06:53:50;;;;;;;26.67;11.00;;;6.80;99.90;;;;;;5052924;28;20033;-72
2021/10/17 06:56:16;;;;;;;25.98;11.85;;;7.00;99.90;;;;;;5052980;28;20029;-61
2021/10/17 06:58:41;;;;;;;19.75;10.00;;;7.10;99.90;;;;;;5053280;28;20391;-61
2021/10/17 07:01:07;;;;;;;18.90;9.73;;;7.20;99.90;;;;;;5053039;28;20124;-64
2021/10/17 07:03:36;;;;;;;22.33;10.07;;;7.10;99.90;;;;;;5052935;28;20033;-66
2021/10/17 07:06:05;;;;;;;18.73;9.70;;;7.20;99.90;;;;;;5052650;28;20033;-68
2021/10/17 07:08:31;;;;;;;18.65;8.93;;;7.40;99.90;;;;;;5052715;28;20078;-67
2021/10/17 07:10:57;;;;;;;17.20;9.07;;;7.50;99.90;;;;;;5067628;28;20040;-68
2021/10/17 07:13:23;;;;;;;15.00;8.43;;;7.60;99.90;;;;;;5052517;28;20543;-67
2021/10/17 07:15:49;;;;;;;14.27;7.97;;;7.80;99.90;;;;;;5067860;28;20033;-69
2021/10/17 07:18:15;;;;;;;15.32;8.15;;;7.70;99.90;;;;;;5051815;28;20502;-69
2021/10/17 07:20:41;;;;;;;12.85;8.20;;;7.80;99.90;;;;;;5067655;28;20107;-69
2021/10/17 07:23:07;;;;;;;10.68;7.05;;;7.90;99.90;;;;;;5052055;28;20116;-69
2021/10/17 07:25:33;;;;;;;19.63;7.88;;;8.10;99.90;;;;;;5051191;28;20115;-69
2021/10/17 07:27:58;;;;;;;14.40;7.80;;;8.20;99.90;;;;;;5052101;28;20041;-69
2021/10/17 07:30:25;;;;;;;15.65;8.20;;;8.10;99.90;;;;;;5052409;28;20029;-67
2021/10/17 07:32:51;;;;;;;25.80;12.00;;;8.30;99.90;;;;;;5052283;28;20064;-69
2021/10/17 07:35:17;;;;;;;30.02;12.55;;;8.40;99.90;;;;;;5052401;28;20417;-68
2021/10/17 07:37:43;;;;;;;27.83;11.35;;;8.20;99.90;;;;;;5052328;28;20025;-68
2021/10/17 07:40:09;;;;;;;21.90;10.43;;;8.30;99.90;;;;;;5067765;28;20033;-69
2021/10/17 07:42:35;;;;;;;24.50;10.82;;;8.10;99.90;;;;;;5067633;28;20045;-68
2021/10/17 07:45:02;;;;;;;24.85;11.10;;;8.20;99.90;;;;;;5067743;28;20032;-68
2021/10/17 07:47:28;;;;;;;24.02;11.05;;;8.40;99.90;;;;;;5067454;28;20048;-70
2021/10/17 07:49:53;;;;;;;25.65;11.05;;;8.50;99.90;;;;;;5052351;28;20025;-68
2021/10/17 07:52:19;;;;;;;24.25;11.23;;;8.60;99.90;;;;;;5067696;28;20041;-68
2021/10/17 07:54:45;;;;;;;18.20;9.75;;;8.50;99.90;;;;;;5052000;28;20095;-73
2021/10/17 07:57:12;;;;;;;20.40;9.63;;;8.70;99.90;;;;;;5067382;28;20033;-68
2021/10/17 07:59:38;;;;;;;21.80;10.50;;;8.70;99.90;;;;;;5067696;28;20477;-68
2021/10/17 08:02:04;;;;;;;29.55;12.23;;;8.60;99.90;;;;;;5067597;28;20044;-72
2021/10/17 08:04:30;;;;;;;27.33;11.23;;;8.90;99.90;;;;;;5067392;28;20021;-68
2021/10/17 08:06:55;;;;;;;30.88;11.02;;;8.80;99.90;;;;;;5051926;28;20125;-70
2021/10/17 08:09:21;;;;;;;22.42;10.80;;;8.90;99.90;;;;;;5067399;28;20063;-69
2021/10/17 08:11:47;;;;;;;20.58;11.25;;;8.70;99.90;;;;;;5052063;28;20067;-70
2021/10/17 08:14:13;;;;;;;31.45;11.95;;;8.80;99.90;;;;;;5052018;28;20033;-74
2021/10/17 08:16:38;;;;;;;38.45;15.07;;;8.80;99.90;;;;;;5051885;28;20114;-69
2021/10/17 08:19:04;;;;;;;34.03;14.13;;;8.80;99.90;;;;;;5051461;28;20044;-70
2021/10/17 08:21:31;;;;;;;37.35;15.98;;;8.80;99.90;;;;;;5067262;28;20041;-71
2021/10/17 08:23:58;;;;;;;31.73;14.68;;;9.00;99.90;;;;;;5067225;28;20041;-72
2021/10/17 08:26:24;;;;;;;32.70;14.38;;;8.80;99.90;;;;;;5067372;28;20036;-69
2021/10/17 08:28:50;;;;;;;32.08;13.85;;;8.90;99.90;;;;;;5052073;28;20375;-69
2021/10/17 08:31:16;;;;;;;40.25;14.38;;;8.90;99.90;;;;;;5067207;28;20158;-69
2021/10/17 08:33:42;;;;;;;35.83;13.88;;;8.90;99.90;;;;;;5051809;28;20119;-69
2021/10/17 08:36:09;;;;;;;36.97;14.52;;;8.90;99.90;;;;;;5051477;28;20033;-69
2021/10/17 08:38:34;;;;;;;34.90;14.90;;;9.00;99.90;;;;;;5051823;28;20036;-69
2021/10/17 08:41:00;;;;;;;57.30;28.35;;;9.00;99.90;;;;;;5067142;28;20025;-69
2021/10/17 08:43:27;;;;;;;29.88;14.52;;;9.20;99.90;;;;;;5051662;28;20363;-69
2021/10/17 08:45:54;;;;;;;32.85;15.57;;;9.30;99.90;;;;;;5051213;28;20488;-69
2021/10/17 08:48:30;;;;;;;30.90;14.23;;;9.40;99.90;;;;;;5051703;28;20033;-69
2021/10/17 08:50:59;;;;;;;40.17;14.75;;;9.60;99.90;;;;;;5066912;28;20600;-70
2021/10/17 08:53:26;;;;;;;36.25;15.57;;;9.80;99.90;;;;;;5066714;28;20044;-68
2021/10/17 08:55:52;;;;;;;33.03;13.75;;;10.00;99.90;;;;;;5067218;28;20120;-68
2021/10/17 08:58:17;;;;;;;32.20;13.48;;;10.00;99.90;;;;;;5051480;28;20129;-70
2021/10/17 09:00:43;;;;;;;32.33;13.57;;;9.90;99.90;;;;;;5067183;28;20116;-73
2021/10/17 09:03:09;;;;;;;30.13;13.10;;;10.00;99.90;;;;;;5066506;28;20552;-71
2021/10/17 09:05:45;;;;;;;34.30;13.85;;;10.00;99.90;;;;;;5067746;28;20025;-68
2021/10/17 09:08:27;;;;;;;40.00;17.25;;;10.00;99.90;;;;;;5054955;28;20025;-69
2021/10/17 09:10:53;;;;;;;29.75;14.00;;;10.00;99.90;;;;;;5070671;28;20033;-69
2021/10/17 09:13:19;;;;;;;33.28;13.90;;;10.00;99.90;;;;;;5070243;28;20033;-69
2021/10/17 09:15:45;;;;;;;31.92;13.55;;;10.10;99.90;;;;;;5055003;28;20037;-68
2021/10/17 09:18:21;;;;;;;27.88;13.32;;;10.20;99.90;;;;;;5054627;28;20083;-68
2021/10/17 09:20:46;;;;;;;29.02;11.80;;;10.30;99.90;;;;;;5054781;28;20028;-68
2021/10/17 09:23:26;;;;;;;30.88;13.05;;;10.20;99.90;;;;;;5054506;28;20037;-67
2021/10/17 09:25:58;;;;;;;28.92;12.20;;;10.40;99.90;;;;;;5054769;28;20029;-67
2021/10/17 09:28:30;;;;;;;26.63;12.00;;;10.40;99.90;;;;;;5070407;28;20075;-68
2021/10/17 09:31:14;;;;;;;26.65;12.50;;;10.80;99.90;;;;;;5069829;28;20512;-68
2021/10/17 09:33:47;;;;;;;24.95;11.07;;;10.90;99.90;;;;;;5054557;28;20490;-69
2021/10/17 09:36:30;;;;;;;24.40;10.85;;;10.50;99.90;;;;;;5069508;28;20115;-68
2021/10/17 09:41:49;;;;;;;26.13;11.18;;;11.10;99.90;;;;;;5054562;28;20025;-70
2021/10/17 09:44:14;;;;;;;26.77;12.00;;;11.20;99.90;;;;;;5068769;28;20494;-68
2021/10/17 09:47:00;;;;;;;23.27;9.80;;;11.20;99.90;;;;;;5054734;28;20040;-70
2021/10/17 09:49:26;;;;;;;18.98;9.90;;;11.10;99.90;;;;;;5052885;28;20101;-69
2021/10/17 09:52:18;;;;;;;26.50;11.38;;;11.20;99.90;;;;;;5053061;28;20029;-65
2021/10/17 09:54:50;;;;;;;24.20;11.27;;;11.50;99.90;;;;;;5054163;28;20040;-67
2021/10/17 09:57:18;;;;;;;24.20;11.63;;;11.60;99.90;;;;;;5053169;28;20171;-68
2021/10/17 09:59:45;;;;;;;23.40;12.52;;;11.10;99.90;;;;;;5053290;28;20056;-68
2021/10/17 10:02:13;;;;;;;50.92;20.40;;;11.50;99.90;;;;;;5053106;28;20021;-70
2021/10/17 10:04:45;;;;;;;21.08;9.82;;;11.50;99.90;;;;;;5052765;28;20029;-68
2021/10/17 10:07:21;;;;;;;156.15;86.25;;;11.60;99.90;;;;;;5052625;28;20044;-71
2021/10/17 10:09:48;;;;;;;21.60;10.60;;;11.80;99.90;;;;;;5053044;28;20098;-66
2021/10/17 10:12:16;;;;;;;25.60;12.00;;;11.70;99.90;;;;;;5052352;28;20029;-67
2021/10/17 10:14:45;;;;;;;27.40;12.52;;;11.80;99.90;;;;;;5060545;28;20031;-66
2021/10/17 10:17:12;;;;;;;23.98;12.30;;;11.40;99.90;;;;;;5087681;28;20039;-66
2021/10/17 10:19:38;;;;;;;32.63;14.40;;;11.20;99.90;;;;;;5088965;28;20609;-66
2021/10/17 10:22:04;;;;;;;27.42;13.23;;;11.10;99.90;;;;;;5089243;28;20040;-67
2021/10/17 10:24:32;;;;;;;40.85;20.33;;;11.40;99.90;;;;;;5073662;28;20442;-68
2021/10/17 10:26:59;;;;;;;31.63;14.85;;;11.60;99.90;;;;;;5089127;28;20033;-67
2021/10/17 10:29:32;;;;;;;29.98;14.15;;;11.50;99.90;;;;;;5073865;28;20025;-67
2021/10/17 10:32:01;;;;;;;32.35;16.20;;;11.70;99.90;;;;;;5073981;28;20036;-67
2021/10/17 10:34:36;;;;;;;65.28;34.63;;;11.30;99.90;;;;;;5089010;28;20415;-67
2021/10/17 10:37:19;;;;;;;27.63;14.75;;;11.30;99.90;;;;;;5073151;28;20086;-67
2021/10/17 10:40:09;;;;;;;25.20;14.52;;;11.50;99.90;;;;;;5071943;28;20025;-68
2021/10/17 10:42:36;;;;;;;27.98;14.43;;;11.60;99.90;;;;;;5088443;28;20490;-68
2021/10/17 10:45:28;;;;;;;93.15;55.67;;;11.60;99.90;;;;;;5060881;28;20064;-69
2021/10/17 10:48:12;;;;;;;31.55;16.70;;;11.60;99.90;;;;;;5042034;28;20029;-68
2021/10/17 10:50:52;;;;;;;95.65;56.60;;;11.60;99.90;;;;;;5053248;28;20146;-68
2021/10/17 10:53:54;;;;;;;34.70;16.38;;;11.60;99.90;;;;;;5068471;28;20059;-68
2021/10/17 10:56:37;;;;;;;32.90;17.05;;;11.60;99.90;;;;;;5052662;28;20037;-67
2021/10/17 10:59:04;;;;;;;37.67;17.45;;;11.70;99.90;;;;;;5052695;28;20124;-68
2021/10/17 11:02:19;;;;;;;36.58;17.80;;;11.80;99.90;;;;;;5052921;28;20424;-68
2021/10/17 11:04:54;;;;;;;34.88;17.15;;;11.40;99.90;;;;;;5052752;28;20087;-68
2021/10/17 11:07:29;;;;;;;35.80;18.20;;;11.70;99.90;;;;;;5052779;28;20482;-68
2021/10/17 11:10:16;;;;;;;32.70;16.25;;;11.80;99.90;;;;;;5068270;28;20029;-69
2021/10/17 11:12:41;;;;;;;35.85;17.60;;;11.80;99.90;;;;;;5053032;28;20033;-68
2021/10/17 11:15:14;;;;;;;37.63;18.20;;;11.20;99.90;;;;;;5063748;28;20090;-68
2021/10/17 11:18:06;;;;;;;33.42;18.13;;;11.50;99.90;;;;;;5087625;28;20039;-68
2021/10/17 11:20:40;;;;;;;43.45;20.65;;;11.30;99.90;;;;;;5074282;28;20076;-67
2021/10/17 11:23:17;;;;;;;37.20;18.08;;;11.30;99.90;;;;;;5072415;28;20064;-67
2021/10/17 11:26:05;;;;;;;33.70;16.83;;;11.50;99.90;;;;;;5071372;28;20093;-66
2021/10/17 11:28:33;;;;;;;33.22;17.15;;;11.40;99.90;;;;;;5070994;28;20028;-66
2021/10/17 11:31:05;;;;;;;33.35;16.08;;;11.20;99.90;;;;;;5072605;28;20044;-66
2021/10/17 11:33:32;;;;;;;34.28;17.77;;;11.20;99.90;;;;;;5072649;28;20029;-67
2021/10/17 11:35:58;;;;;;;32.47;14.88;;;11.30;99.90;;;;;;5088012;28;20417;-69
2021/10/17 11:38:25;;;;;;;30.67;14.65;;;11.50;99.90;;;;;;5087922;28;20037;-67
2021/10/17 11:41:04;;;;;;;32.75;16.50;;;11.20;99.90;;;;;;5072360;28;20040;-67
2021/10/17 11:43:46;;;;;;;30.65;15.43;;;11.40;99.90;;;;;;5087520;28;20028;-70
2021/10/17 11:46:24;;;;;;;30.20;13.77;;;11.60;99.90;;;;;;5032593;28;20124;-66
2021/10/17 11:48:58;;;;;;;30.67;13.73;;;11.60;99.90;;;;;;5031362;28;20037;-68
2021/10/17 11:51:24;;;;;;;36.28;15.27;;;11.60;99.90;;;;;;5031981;28;20034;-67
2021/10/17 11:53:59;;;;;;;30.13;13.73;;;11.60;99.90;;;;;;5032456;28;20030;-68
2021/10/17 11:56:25;;;;;;;30.15;13.65;;;11.60;99.90;;;;;;5030653;28;20035;-70
2021/10/17 11:58:50;;;;;;;32.58;14.02;;;11.50;99.90;;;;;;5031044;28;20114;-71
2021/10/17 12:01:18;;;;;;;32.05;14.32;;;11.50;99.90;;;;;;5031123;28;20112;-71
2021/10/17 12:03:57;;;;;;;33.05;13.48;;;11.50;99.90;;;;;;5032250;28;20034;-70
2021/10/17 12:06:24;;;;;;;39.78;15.55;;;11.20;99.90;;;;;;5030690;28;20375;-72
2021/10/17 12:09:00;;;;;;;31.48;15.43;;;11.30;99.90;;;;;;5032331;28;20466;-71
2021/10/17 12:11:26;;;;;;;30.58;14.27;;;11.50;99.90;;;;;;5017695;28;20033;-70
2021/10/17 12:13:55;;;;;;;35.78;15.32;;;11.50;99.90;;;;;;5047210;28;20095;-72
2021/10/17 12:16:30;;;;;;;34.00;15.45;;;11.60;99.90;;;;;;5087304;28;20060;-70
2021/10/17 12:19:05;;;;;;;36.28;15.45;;;11.60;99.90;;;;;;5086473;28;20051;-71
2021/10/17 12:21:41;;;;;;;65.38;32.45;;;11.30;99.90;;;;;;5071882;28;20020;-75
2021/10/17 12:24:09;;;;;;;34.13;14.80;;;11.40;99.90;;;;;;5071776;28;20362;-71
2021/10/17 12:26:36;;;;;;;32.28;14.77;;;11.60;99.90;;;;;;5087460;28;20139;-72
2021/10/17 12:29:14;;;;;;;32.65;14.77;;;11.60;99.90;;;;;;5071741;28;20481;-72
2021/10/17 12:31:53;;;;;;;29.45;14.73;;;11.60;99.90;;;;;;5071647;28;20029;-71
2021/10/17 12:34:46;;;;;;;36.10;15.40;;;11.60;99.90;;;;;;5087086;28;20116;-72
2021/10/17 12:37:15;;;;;;;29.50;13.02;;;11.60;99.90;;;;;;5071447;28;20089;-71
2021/10/17 12:39:41;;;;;;;30.13;13.05;;;11.60;99.90;;;;;;5077786;28;20024;-72
2021/10/17 12:42:08;;;;;;;34.90;14.13;;;11.70;99.90;;;;;;5070432;28;20134;-72
2021/10/17 12:44:44;;;;;;;29.13;13.90;;;11.80;99.90;;;;;;5077717;28;20063;-71
2021/10/17 12:47:10;;;;;;;28.65;13.25;;;11.70;99.90;;;;;;5091118;28;20036;-71